Time;durP1;ratioP1;P1;durP2;ratioP2;P2;SDS_P1;SDS_P2;PMS_P1;PMS_P2;Temp;Humidity;BMP_temperature;BMP_pressure;BME280_temperature;BME280_humidity;BME280_pressure;Samples;Min_cycle;Max_cycle;Signal;HPM_P1;HPM_P2
2021/12/12 00:03:21;;;;;;;27.85;11.23;;;-2.50;99.90;;;;;;5047404;28;20269;-78
2021/12/12 00:05:20;;;;;;;33.47;10.93;;;-2.50;99.90;;;;;;5022824;28;20212;-78
2021/12/12 00:07:47;;;;;;;30.17;8.73;;;-2.40;99.90;;;;;;5031901;28;20165;-79
2021/12/12 00:10:20;;;;;;;16.20;7.22;;;-2.50;99.90;;;;;;5047141;28;20248;-79
2021/12/12 00:12:50;;;;;;;34.17;9.63;;;-2.50;99.90;;;;;;5031694;28;20217;-79
2021/12/12 00:15:19;;;;;;;51.00;10.40;;;-2.60;99.90;;;;;;5046964;28;20170;-78
2021/12/12 00:17:46;;;;;;;16.77;9.70;;;-2.60;99.90;;;;;;5046858;28;20170;-78
2021/12/12 00:20:15;;;;;;;23.27;8.30;;;-2.60;99.90;;;;;;5031505;28;20611;-77
2021/12/12 00:22:41;;;;;;;18.52;8.57;;;-2.50;99.90;;;;;;5031497;28;20285;-78
2021/12/12 00:25:09;;;;;;;18.65;9.52;;;-2.60;99.90;;;;;;5046738;28;20162;-78
2021/12/12 00:27:35;;;;;;;29.08;9.07;;;-2.60;99.90;;;;;;5013803;28;20241;-77
2021/12/12 00:30:03;;;;;;;20.30;7.72;;;-2.50;99.90;;;;;;5030028;28;20205;-78
2021/12/12 00:32:33;;;;;;;47.30;9.57;;;-2.60;99.90;;;;;;5046640;28;20257;-78
2021/12/12 00:35:03;;;;;;;24.73;8.70;;;-2.70;99.90;;;;;;5031363;28;20191;-79
2021/12/12 00:37:31;;;;;;;32.55;11.05;;;-2.70;99.90;;;;;;5063581;28;20182;-77
2021/12/12 00:40:05;;;;;;;22.20;10.00;;;-2.60;99.90;;;;;;5050926;28;20201;-79
2021/12/12 00:42:35;;;;;;;28.38;9.02;;;-2.70;99.90;;;;;;5033887;28;20193;-78
2021/12/12 00:45:08;;;;;;;30.50;7.95;;;-2.60;99.90;;;;;;5051017;28;20154;-79
2021/12/12 00:47:34;;;;;;;20.65;7.35;;;-2.70;99.90;;;;;;5049540;28;20180;-78
2021/12/12 00:50:00;;;;;;;61.03;10.50;;;-2.60;99.90;;;;;;5049596;28;20193;-78
2021/12/12 00:52:26;;;;;;;43.55;8.82;;;-2.80;99.90;;;;;;5050190;28;20200;-78
2021/12/12 00:54:52;;;;;;;43.50;9.40;;;-2.80;99.90;;;;;;5049404;28;20173;-78
2021/12/12 00:57:21;;;;;;;41.35;8.90;;;-2.80;99.90;;;;;;5049817;28;20200;-78
2021/12/12 00:59:48;;;;;;;23.23;9.00;;;-2.70;99.90;;;;;;5030821;28;20670;-78
2021/12/12 01:02:30;;;;;;;39.13;9.82;;;-2.80;99.90;;;;;;5030827;28;20186;-78
2021/12/12 01:04:59;;;;;;;29.63;9.25;;;-2.80;99.90;;;;;;5013087;28;20189;-79
2021/12/12 01:07:32;;;;;;;19.05;8.63;;;-2.80;99.90;;;;;;5030674;28;20564;-79
2021/12/12 01:10:24;;;;;;;36.75;8.98;;;-2.90;99.90;;;;;;5030543;28;20237;-79
2021/12/12 01:12:52;;;;;;;48.45;8.57;;;-3.00;99.90;;;;;;5030698;28;20158;-78
2021/12/12 01:15:30;;;;;;;28.05;8.55;;;-3.00;99.90;;;;;;5030550;28;20162;-79
2021/12/12 01:18:00;;;;;;;21.98;9.43;;;-3.00;99.90;;;;;;5029112;28;20177;-78
2021/12/12 01:20:37;;;;;;;21.85;8.57;;;-3.00;99.90;;;;;;5028980;28;20212;-78
2021/12/12 01:23:22;;;;;;;92.88;11.00;;;-3.00;99.90;;;;;;5012594;28;20197;-77
2021/12/12 01:25:49;;;;;;;43.75;10.38;;;-3.00;99.90;;;;;;5013488;28;20162;-78
2021/12/12 01:28:23;;;;;;;33.70;9.25;;;-3.00;99.90;;;;;;5028994;28;20635;-77
2021/12/12 01:30:54;;;;;;;22.77;8.45;;;-3.00;99.90;;;;;;5012636;28;20293;-78
2021/12/12 01:33:36;;;;;;;20.58;9.15;;;-3.00;99.90;;;;;;5028899;28;20258;-78
2021/12/12 01:36:09;;;;;;;16.17;7.75;;;-2.90;99.90;;;;;;5014866;28;20174;-78
2021/12/12 01:38:54;;;;;;;19.02;8.30;;;-2.90;99.90;;;;;;5028751;28;20257;-78
2021/12/12 01:41:39;;;;;;;27.92;9.57;;;-2.80;99.90;;;;;;5030049;28;20205;-78
2021/12/12 01:44:22;;;;;;;21.88;9.63;;;-2.90;99.90;;;;;;4996325;28;20197;-78
2021/12/12 01:47:05;;;;;;;21.33;8.88;;;-3.00;99.90;;;;;;5012538;28;20150;-78
2021/12/12 01:49:34;;;;;;;21.42;8.93;;;-3.10;99.90;;;;;;5029926;28;20165;-78
2021/12/12 01:52:01;;;;;;;36.35;9.43;;;-3.20;99.90;;;;;;4996130;28;20159;-77
2021/12/12 01:54:42;;;;;;;36.65;11.05;;;-3.20;99.90;;;;;;5028593;28;20190;-78
2021/12/12 01:57:13;;;;;;;38.13;10.95;;;-3.30;99.90;;;;;;5029879;28;20164;-79
2021/12/12 01:59:42;;;;;;;28.30;10.32;;;-3.20;99.90;;;;;;5029800;28;20226;-78
2021/12/12 02:02:14;;;;;;;36.20;10.18;;;-3.40;99.90;;;;;;5011994;28;20178;-78
2021/12/12 02:04:46;;;;;;;32.72;8.80;;;-3.40;99.90;;;;;;5011483;28;20170;-78
2021/12/12 02:07:16;;;;;;;20.80;8.55;;;-3.50;99.90;;;;;;5029663;28;20162;-78
2021/12/12 02:09:43;;;;;;;15.57;7.28;;;-3.50;99.90;;;;;;4996010;28;20193;-79
2021/12/12 02:12:10;;;;;;;19.55;8.65;;;-3.60;99.90;;;;;;5011848;28;20201;-78
2021/12/12 02:14:39;;;;;;;14.23;7.90;;;-3.60;99.90;;;;;;5029575;28;20222;-78
2021/12/12 02:17:22;;;;;;;34.95;7.18;;;-3.70;99.90;;;;;;5028646;28;20162;-77
2021/12/12 02:22:47;;;;;;;32.00;9.50;;;-4.00;99.90;;;;;;5029225;28;20288;-77
2021/12/12 02:35:59;;;;;;;26.92;8.57;;;-4.00;99.90;;;;;;5029339;28;20166;-78
2021/12/12 02:38:31;;;;;;;17.02;8.60;;;-4.00;99.90;;;;;;5029381;28;20166;-77
2021/12/12 02:41:01;;;;;;;24.73;9.02;;;-4.10;99.90;;;;;;5029327;28;20166;-77
2021/12/12 02:43:33;;;;;;;27.30;11.10;;;-4.10;99.90;;;;;;5029170;28;20209;-77
2021/12/12 02:45:59;;;;;;;14.57;7.65;;;-4.10;99.90;;;;;;5029292;28;20632;-77
2021/12/12 02:48:32;;;;;;;19.75;8.68;;;-4.20;99.90;;;;;;5029179;28;20165;-78
2021/12/12 02:51:02;;;;;;;15.45;9.10;;;-4.20;99.90;;;;;;5029292;28;20197;-77
2021/12/12 02:53:42;;;;;;;12.80;6.93;;;-4.20;99.90;;;;;;5029110;28;20238;-77
2021/12/12 02:56:22;;;;;;;9.73;6.47;;;-4.20;99.90;;;;;;5029169;28;20173;-77
2021/12/12 02:58:49;;;;;;;17.90;7.63;;;-4.00;99.90;;;;;;5033836;28;20225;-77
2021/12/12 03:01:33;;;;;;;21.42;8.80;;;-4.00;99.90;;;;;;5047566;28;20261;-78
2021/12/12 03:03:59;;;;;;;15.15;7.97;;;-4.10;99.90;;;;;;5048774;28;20219;-77
2021/12/12 03:06:32;;;;;;;13.10;8.15;;;-4.20;99.90;;;;;;5048853;28;20181;-77
2021/12/12 03:09:07;;;;;;;21.88;7.50;;;-4.10;99.90;;;;;;5048854;28;20162;-78
2021/12/12 03:11:33;;;;;;;19.08;6.70;;;-4.00;99.90;;;;;;5048734;28;20157;-78
2021/12/12 03:14:00;;;;;;;16.58;7.90;;;-4.10;99.90;;;;;;5048748;28;20184;-78
2021/12/12 03:16:27;;;;;;;19.58;7.93;;;-4.20;99.90;;;;;;5051374;28;20172;-78
2021/12/12 03:18:53;;;;;;;14.40;7.90;;;-4.20;99.90;;;;;;5052540;28;20173;-78
2021/12/12 03:21:32;;;;;;;10.52;5.82;;;-4.20;99.90;;;;;;5052572;28;20166;-78
2021/12/12 03:24:11;;;;;;;16.67;8.50;;;-4.10;99.90;;;;;;5052518;28;20272;-78
2021/12/12 03:26:38;;;;;;;9.27;5.43;;;-4.00;99.90;;;;;;5052548;28;20217;-77
2021/12/12 03:29:07;;;;;;;5.72;2.80;;;-3.90;99.90;;;;;;5052507;28;20157;-78
2021/12/12 03:31:40;;;;;;;5.00;2.72;;;-3.10;99.90;;;;;;5052311;28;20165;-78
2021/12/12 03:34:10;;;;;;;7.22;4.35;;;-1.80;99.90;;;;;;5052359;28;20167;-79
2021/12/12 03:36:36;;;;;;;5.32;3.15;;;0.40;99.90;;;;;;5052255;28;20169;-79
2021/12/12 03:39:09;;;;;;;3.20;1.95;;;1.00;99.90;;;;;;5052195;28;20184;-79
2021/12/12 03:41:37;;;;;;;2.45;1.95;;;1.10;99.90;;;;;;5051906;28;20208;-79
2021/12/12 03:44:09;;;;;;;2.10;1.13;;;1.10;99.90;;;;;;5052093;28;20253;-79
2021/12/12 03:46:36;;;;;;;1.63;1.50;;;1.80;99.90;;;;;;5050803;28;20166;-79
2021/12/12 03:49:06;;;;;;;1.50;0.75;;;1.90;99.90;;;;;;5052016;28;20161;-79
2021/12/12 03:51:34;;;;;;;2.25;1.35;;;1.90;99.90;;;;;;5051868;28;20237;-80
2021/12/12 03:54:01;;;;;;;2.00;0.90;;;1.90;99.90;;;;;;5051930;28;20157;-79
2021/12/12 03:56:27;;;;;;;2.10;1.55;;;1.90;99.90;;;;;;5051891;28;20196;-80
2021/12/12 03:58:55;;;;;;;2.58;1.27;;;1.90;99.90;;;;;;5037940;28;20312;-78
2021/12/12 04:01:31;;;;;;;1.20;0.90;;;1.90;99.90;;;;;;5030548;28;20174;-78
2021/12/12 04:04:16;;;;;;;2.10;1.17;;;1.90;99.90;;;;;;5031784;28;20186;-79
2021/12/12 04:06:43;;;;;;;4.70;1.42;;;2.10;99.90;;;;;;5031940;28;20162;-78
2021/12/12 04:09:11;;;;;;;1.48;1.15;;;2.10;99.90;;;;;;5031768;28;20194;-77
2021/12/12 04:11:44;;;;;;;3.50;1.40;;;2.40;99.90;;;;;;5031738;28;20615;-78
2021/12/12 04:14:10;;;;;;;2.55;1.38;;;2.60;99.90;;;;;;5014091;28;20166;-79
2021/12/12 04:16:40;;;;;;;1.25;1.15;;;2.50;99.90;;;;;;5031678;28;20163;-79
2021/12/12 04:19:07;;;;;;;2.00;1.35;;;2.40;99.90;;;;;;5031221;28;20162;-80
2021/12/12 04:21:34;;;;;;;2.05;1.85;;;2.40;99.90;;;;;;5031484;28;20159;-78
2021/12/12 04:24:00;;;;;;;1.88;1.10;;;2.60;99.90;;;;;;5030107;28;20194;-78
2021/12/12 04:26:34;;;;;;;1.30;1.00;;;2.70;99.90;;;;;;5031076;28;20150;-81
2021/12/12 04:29:34;;;;;;;1.77;1.20;;;2.60;99.90;;;;;;5031170;28;20159;-80
2021/12/12 04:32:05;;;;;;;1.55;1.20;;;;;;;;;;5020274;28;20734;-79
2021/12/12 04:34:32;;;;;;;1.77;1.30;;;;;;;;;;5031340;28;20189;-78
2021/12/12 04:37:03;;;;;;;1.40;1.25;;;2.50;99.90;;;;;;5013720;28;20639;-79
2021/12/12 04:39:31;;;;;;;2.05;1.48;;;;;;;;;;5031252;28;20538;-79
2021/12/12 04:42:01;;;;;;;1.27;1.17;;;2.60;99.90;;;;;;5030911;28;20194;-78
2021/12/12 04:44:31;;;;;;;2.78;1.05;;;2.70;99.90;;;;;;5031104;28;20166;-79
2021/12/12 04:50:45;;;;;;;3.25;1.45;;;2.60;99.90;;;;;;5031032;28;20193;-78
2021/12/12 04:53:29;;;;;;;3.95;1.55;;;2.60;99.90;;;;;;5030779;28;20204;-79
2021/12/12 04:56:04;;;;;;;1.35;1.25;;;2.90;99.90;;;;;;5030848;28;20189;-79
2021/12/12 04:58:45;;;;;;;2.00;0.98;;;2.70;99.90;;;;;;5030686;28;20766;-79
2021/12/12 05:01:24;;;;;;;1.70;1.23;;;2.70;99.90;;;;;;5030733;28;20192;-80
2021/12/12 05:03:52;;;;;;;1.75;1.20;;;;;;;;;;5030673;28;20186;-79
2021/12/12 05:06:33;;;;;;;1.95;1.38;;;2.50;99.90;;;;;;5030685;28;20189;-78
2021/12/12 05:09:04;;;;;;;1.95;1.10;;;2.80;99.90;;;;;;5030571;28;20154;-79
2021/12/12 05:11:47;;;;;;;1.98;1.13;;;3.00;99.90;;;;;;5030554;28;20150;-78
2021/12/12 05:14:27;;;;;;;1.77;1.23;;;2.90;99.90;;;;;;5030627;28;20166;-78
2021/12/12 05:17:09;;;;;;;1.20;1.08;;;2.80;99.90;;;;;;5030446;28;20162;-79
2021/12/12 05:19:41;;;;;;;1.88;1.15;;;2.80;99.90;;;;;;5030357;28;20181;-78
2021/12/12 05:22:14;;;;;;;1.23;0.85;;;2.80;99.90;;;;;;5030192;28;20194;-78
2021/12/12 05:24:44;;;;;;;3.83;1.20;;;2.90;99.90;;;;;;5030397;28;20250;-79
2021/12/12 05:27:14;;;;;;;2.33;1.33;;;2.80;99.90;;;;;;5030343;28;20157;-79
2021/12/12 05:29:45;;;;;;;2.33;1.00;;;2.80;99.90;;;;;;5030266;28;20226;-78
2021/12/12 05:32:14;;;;;;;1.38;0.80;;;2.90;99.90;;;;;;5030134;28;20201;-78
2021/12/12 05:34:44;;;;;;;2.10;1.02;;;2.80;99.90;;;;;;5030131;28;20178;-78
2021/12/12 05:37:12;;;;;;;1.67;1.15;;;3.00;99.90;;;;;;5030201;28;20162;-79
2021/12/12 05:39:39;;;;;;;1.13;0.98;;;2.90;99.90;;;;;;5028605;28;20258;-79
2021/12/12 05:42:07;;;;;;;0.63;0.60;;;2.90;99.90;;;;;;5029914;28;20193;-78
2021/12/12 05:44:33;;;;;;;1.55;0.80;;;3.10;99.90;;;;;;5030054;28;20166;-79
2021/12/12 05:47:03;;;;;;;1.27;0.80;;;2.90;99.90;;;;;;5030039;28;20162;-79
2021/12/12 05:49:31;;;;;;;1.27;0.82;;;;;;;;;;5030108;28;20158;-78
2021/12/12 05:51:59;;;;;;;0.88;0.73;;;3.00;99.90;;;;;;5030025;28;20186;-79
2021/12/12 05:54:26;;;;;;;3.83;0.90;;;3.20;99.90;;;;;;5029925;28;20162;-80
2021/12/12 05:56:53;;;;;;;0.70;0.70;;;3.20;99.90;;;;;;5029780;28;20176;-80
2021/12/12 05:59:21;;;;;;;1.10;0.60;;;3.10;99.90;;;;;;5029603;28;20229;-79
2021/12/12 06:01:48;;;;;;;0.88;0.50;;;3.20;99.90;;;;;;5029633;28;20193;-78
2021/12/12 06:04:16;;;;;;;0.88;0.70;;;3.40;99.90;;;;;;5029677;28;20216;-80
2021/12/12 06:06:43;;;;;;;1.65;0.50;;;3.20;99.90;;;;;;5029661;28;20190;-79
2021/12/12 06:09:13;;;;;;;0.80;0.70;;;3.30;99.90;;;;;;5029531;28;20210;-77
2021/12/12 06:11:43;;;;;;;0.60;0.47;;;3.40;99.90;;;;;;5011998;28;20178;-79
2021/12/12 06:14:11;;;;;;;2.47;0.60;;;3.40;99.90;;;;;;5029553;28;20189;-79
2021/12/12 06:16:38;;;;;;;2.80;0.60;;;3.30;99.90;;;;;;5029391;28;20158;-81
2021/12/12 06:19:35;;;;;;;0.52;0.52;;;3.20;99.90;;;;;;5029552;28;20192;-81
2021/12/12 06:22:02;;;;;;;0.57;0.57;;;3.20;99.90;;;;;;5026129;28;20210;-79
2021/12/12 06:24:30;;;;;;;2.47;1.60;;;3.20;99.90;;;;;;5029531;28;20154;-78
2021/12/12 06:27:08;;;;;;;1.00;0.57;;;3.50;99.90;;;;;;5028596;28;20185;-78
2021/12/12 06:29:34;;;;;;;2.25;0.60;;;3.70;99.90;;;;;;5029994;28;20153;-81
2021/12/12 06:32:01;;;;;;;0.73;0.47;;;3.70;99.90;;;;;;5029443;28;20253;-79
2021/12/12 06:34:27;;;;;;;0.50;0.50;;;3.60;99.90;;;;;;5029335;28;20167;-78
2021/12/12 06:36:54;;;;;;;0.57;0.57;;;3.60;99.90;;;;;;5029331;28;20247;-77
2021/12/12 06:39:21;;;;;;;0.77;0.60;;;3.40;99.90;;;;;;5029190;28;20174;-79
2021/12/12 06:41:50;;;;;;;0.50;0.50;;;3.60;99.90;;;;;;5029204;28;20202;-77
2021/12/12 06:44:17;;;;;;;0.70;0.70;;;3.60;99.90;;;;;;5029150;28;20561;-78
2021/12/12 06:46:43;;;;;;;0.55;0.45;;;3.80;99.90;;;;;;5025527;28;20169;-78
2021/12/12 06:49:13;;;;;;;0.63;0.50;;;3.60;99.90;;;;;;5019663;28;20233;-78
2021/12/12 06:51:43;;;;;;;0.70;0.63;;;3.50;99.90;;;;;;5022600;28;20209;-79
2021/12/12 06:54:09;;;;;;;0.50;0.30;;;3.70;99.90;;;;;;5021255;28;20170;-77
2021/12/12 06:56:36;;;;;;;0.40;0.40;;;3.70;99.90;;;;;;5022772;28;20178;-77
2021/12/12 06:59:04;;;;;;;0.60;0.60;;;3.70;99.90;;;;;;5021618;28;20272;-78
2021/12/12 07:01:32;;;;;;;0.93;0.63;;;3.60;99.90;;;;;;5022039;28;20501;-78
2021/12/12 07:04:00;;;;;;;0.45;0.43;;;3.60;99.90;;;;;;5022267;28;20209;-78
2021/12/12 07:06:29;;;;;;;0.77;0.65;;;3.80;99.90;;;;;;5023668;28;20166;-78
2021/12/12 07:08:59;;;;;;;0.95;0.55;;;3.80;99.90;;;;;;5022549;28;20242;-78
2021/12/12 07:11:27;;;;;;;0.50;0.50;;;3.60;99.90;;;;;;5021549;28;20174;-77
2021/12/12 07:13:54;;;;;;;0.35;0.35;;;3.60;99.90;;;;;;5022932;28;20190;-79
2021/12/12 07:16:21;;;;;;;0.50;0.45;;;3.60;99.90;;;;;;5023020;28;20166;-79
2021/12/12 07:18:53;;;;;;;0.50;0.50;;;3.60;99.90;;;;;;5020542;28;20166;-78
2021/12/12 07:21:20;;;;;;;0.68;0.47;;;3.60;99.90;;;;;;5022813;28;20171;-76
2021/12/12 07:23:49;;;;;;;3.10;0.68;;;3.70;99.90;;;;;;5021251;28;20190;-78
2021/12/12 07:26:17;;;;;;;3.03;1.33;;;3.80;99.90;;;;;;5022194;28;20169;-78
2021/12/12 07:28:44;;;;;;;0.32;0.30;;;3.80;99.90;;;;;;5023283;28;20233;-78
2021/12/12 07:31:15;;;;;;;0.60;0.60;;;3.80;99.90;;;;;;5015304;28;20247;-78
2021/12/12 07:33:43;;;;;;;0.55;0.50;;;3.80;99.90;;;;;;5012686;28;20206;-79
2021/12/12 07:36:11;;;;;;;0.85;0.65;;;3.80;99.90;;;;;;5012731;28;20601;-78
2021/12/12 07:38:41;;;;;;;0.52;0.40;;;4.00;99.90;;;;;;5012689;28;20166;-79
2021/12/12 07:41:07;;;;;;;0.40;0.40;;;4.00;99.90;;;;;;5012459;28;20479;-78
2021/12/12 07:43:34;;;;;;;1.05;0.73;;;4.00;99.90;;;;;;5012424;28;20211;-79
2021/12/12 07:46:02;;;;;;;0.30;0.30;;;4.00;99.90;;;;;;5012529;28;20159;-78
2021/12/12 07:48:28;;;;;;;1.45;0.52;;;4.10;99.90;;;;;;5012482;28;20184;-78
2021/12/12 07:50:56;;;;;;;0.55;0.55;;;4.20;99.90;;;;;;5012381;28;20159;-81
2021/12/12 07:53:26;;;;;;;3.33;0.40;;;4.20;99.90;;;;;;5012321;28;20594;-80
2021/12/12 07:55:54;;;;;;;0.45;0.45;;;4.30;99.90;;;;;;5012204;28;20239;-78
2021/12/12 07:58:20;;;;;;;0.93;0.60;;;4.50;99.90;;;;;;5021209;28;20237;-81
2021/12/12 08:00:49;;;;;;;0.40;0.40;;;4.70;99.90;;;;;;5031750;28;20178;-82
2021/12/12 08:03:20;;;;;;;0.65;0.50;;;4.70;99.90;;;;;;5031673;28;20194;-82
2021/12/12 08:05:47;;;;;;;0.50;0.50;;;5.00;99.90;;;;;;5031766;28;20150;-81
2021/12/12 08:08:14;;;;;;;0.32;0.32;;;5.70;99.90;;;;;;5031788;28;20158;-80
2021/12/12 08:10:44;;;;;;;0.90;0.40;;;6.20;99.90;;;;;;5031643;28;20154;-80
2021/12/12 08:13:12;;;;;;;0.85;0.60;;;6.80;99.90;;;;;;5031654;28;20197;-81
2021/12/12 08:15:39;;;;;;;0.40;0.40;;;7.50;99.90;;;;;;5031427;28;20221;-80
2021/12/12 08:18:07;;;;;;;0.30;0.30;;;7.20;99.90;;;;;;5030414;28;20542;-80
2021/12/12 08:20:35;;;;;;;0.50;0.50;;;7.70;99.90;;;;;;5031595;28;20154;-81
2021/12/12 08:23:02;;;;;;;0.40;0.40;;;7.60;99.90;;;;;;5031213;28;20197;-77
2021/12/12 08:25:29;;;;;;;0.43;0.40;;;8.10;99.90;;;;;;5030053;28;20174;-76
2021/12/12 08:28:00;;;;;;;2.05;0.43;;;8.40;99.90;;;;;;5031453;28;20158;-78
2021/12/12 08:30:28;;;;;;;1.15;0.40;;;7.90;99.90;;;;;;5030418;28;20178;-76
2021/12/12 08:32:54;;;;;;;0.57;0.40;;;7.80;99.90;;;;;;5045016;28;20208;-76
2021/12/12 08:35:23;;;;;;;0.20;0.20;;;8.10;99.90;;;;;;5034109;28;20197;-77
2021/12/12 08:37:50;;;;;;;3.17;1.20;;;9.30;99.90;;;;;;5043979;28;20166;-76
2021/12/12 08:40:23;;;;;;;0.40;0.40;;;9.40;99.90;;;;;;5039895;28;20224;-76
2021/12/12 08:42:51;;;;;;;0.65;0.43;;;8.80;99.90;;;;;;5036713;28;20316;-75
2021/12/12 08:45:20;;;;;;;0.20;0.20;;;9.10;99.90;;;;;;5047108;28;20169;-75
2021/12/12 08:47:49;;;;;;;0.30;0.30;;;9.10;99.90;;;;;;5056863;28;20166;-75
2021/12/12 08:50:19;;;;;;;0.70;0.47;;;8.60;99.90;;;;;;5041346;28;20166;-75
2021/12/12 08:52:48;;;;;;;1.35;0.30;;;9.20;99.90;;;;;;5042142;28;20654;-75
2021/12/12 08:55:19;;;;;;;0.20;0.20;;;8.70;99.90;;;;;;5033699;28;20166;-77
2021/12/12 08:58:03;;;;;;;0.20;0.20;;;8.40;99.90;;;;;;5040915;28;20282;-77
2021/12/12 09:00:37;;;;;;;0.90;0.57;;;7.40;99.90;;;;;;5025475;28;20166;-75
2021/12/12 09:03:06;;;;;;;0.30;0.30;;;7.10;99.90;;;;;;5014717;28;20202;-75
2021/12/12 09:05:35;;;;;;;0.20;0.20;;;7.00;99.90;;;;;;5026608;28;20170;-76
2021/12/12 09:08:06;;;;;;;0.30;0.30;;;7.00;99.90;;;;;;5017336;28;20166;-75
2021/12/12 09:10:41;;;;;;;0.30;0.30;;;7.10;99.90;;;;;;5018758;28;20235;-75
2021/12/12 09:13:16;;;;;;;0.32;0.32;;;6.80;99.90;;;;;;5025648;28;20208;-74
2021/12/12 09:15:52;;;;;;;0.50;0.50;;;6.50;99.90;;;;;;5010329;28;20710;-76
2021/12/12 09:18:39;;;;;;;0.40;0.40;;;6.80;99.90;;;;;;5010171;28;20218;-75
2021/12/12 09:21:13;;;;;;;1.05;0.40;;;6.80;99.90;;;;;;5008647;28;20182;-75
2021/12/12 09:24:01;;;;;;;0.35;0.35;;;7.20;99.90;;;;;;5010785;28;20213;-75
2021/12/12 09:26:29;;;;;;;3.53;2.30;;;7.10;99.90;;;;;;5010673;28;20159;-76
2021/12/12 09:29:01;;;;;;;2.00;1.10;;;7.10;99.90;;;;;;5010527;28;20162;-75
2021/12/12 09:31:32;;;;;;;1.48;0.60;;;7.00;99.90;;;;;;5010622;28;20616;-75
2021/12/12 09:34:01;;;;;;;0.45;0.30;;;7.00;99.90;;;;;;5010515;28;20554;-76
2021/12/12 09:37:15;;;;;;;0.55;0.35;;;6.90;99.90;;;;;;5010459;28;20169;-76
2021/12/12 09:39:47;;;;;;;0.57;0.47;;;7.00;99.90;;;;;;5000508;28;20674;-76
2021/12/12 09:42:28;;;;;;;0.35;0.35;;;6.80;99.90;;;;;;5010383;28;20175;-76
2021/12/12 09:45:13;;;;;;;0.40;0.40;;;6.40;99.90;;;;;;5010203;28;20250;-76
2021/12/12 09:51:14;;;;;;;1.27;0.20;;;6.70;99.90;;;;;;4992809;28;20217;-76
2021/12/12 09:51:22;;;;;;;0.38;0.30;;;7.10;99.90;;;;;;5010039;28;20174;-75
2021/12/12 09:54:03;;;;;;;0.77;0.30;;;7.10;99.90;;;;;;5010177;28;20222;-75
2021/12/12 09:56:43;;;;;;;0.88;0.50;;;6.90;99.90;;;;;;5010058;28;20256;-77
2021/12/12 09:59:39;;;;;;;0.60;0.40;;;7.40;99.90;;;;;;5011675;28;20225;-76
2021/12/12 10:02:08;;;;;;;0.47;0.35;;;8.30;99.90;;;;;;5021325;28;20188;-76
2021/12/12 10:05:04;;;;;;;0.28;0.28;;;8.60;99.90;;;;;;5029278;28;20628;-77
2021/12/12 10:07:54;;;;;;;0.47;0.32;;;9.50;99.90;;;;;;5029343;28;20233;-75
2021/12/12 10:10:56;;;;;;;0.30;0.30;;;9.70;99.90;;;;;;5020564;28;20607;-75
2021/12/12 10:13:45;;;;;;;0.70;0.50;;;8.80;99.90;;;;;;5029524;28;20157;-75
2021/12/12 10:16:31;;;;;;;1.27;0.40;;;8.10;99.90;;;;;;5029236;28;20197;-74
2021/12/12 10:19:03;;;;;;;0.68;0.50;;;8.10;99.90;;;;;;5029371;28;20161;-76
2021/12/12 10:21:52;;;;;;;0.40;0.40;;;7.70;99.90;;;;;;5029348;28;20162;-75
2021/12/12 10:24:31;;;;;;;0.40;0.40;;;8.20;99.90;;;;;;5018825;28;20232;-78
2021/12/12 10:27:14;;;;;;;0.20;0.20;;;9.70;99.90;;;;;;5029031;28;20181;-77
2021/12/12 10:30:10;;;;;;;0.47;0.35;;;9.70;99.90;;;;;;5029199;28;20194;-77
2021/12/12 10:33:03;;;;;;;0.30;0.30;;;8.70;99.90;;;;;;5029352;28;20181;-79
2021/12/12 10:35:58;;;;;;;0.85;0.45;;;9.20;99.90;;;;;;5028890;28;20210;-79
2021/12/12 10:38:39;;;;;;;0.75;0.60;;;10.20;99.90;;;;;;5028079;28;20249;-79
2021/12/12 10:41:23;;;;;;;1.83;0.77;;;11.30;99.90;;;;;;5029150;28;20158;-78
2021/12/12 10:44:05;;;;;;;1.30;0.38;;;11.70;99.90;;;;;;5028899;28;20196;-79
2021/12/12 10:46:47;;;;;;;0.30;0.30;;;10.10;99.90;;;;;;5026665;28;20623;-77
2021/12/12 10:49:36;;;;;;;0.22;0.22;;;10.90;99.90;;;;;;5029109;28;20534;-78
2021/12/12 10:52:05;;;;;;;0.35;0.35;;;10.40;99.90;;;;;;5027820;28;20166;-78
2021/12/12 10:54:50;;;;;;;0.40;0.32;;;9.90;99.90;;;;;;5029045;28;20192;-76
2021/12/12 10:57:22;;;;;;;0.70;0.17;;;10.60;99.90;;;;;;5028715;28;20217;-76
2021/12/12 10:59:57;;;;;;;0.63;0.50;;;10.40;99.90;;;;;;5028929;28;20209;-75
2021/12/12 11:02:32;;;;;;;0.30;0.25;;;10.30;99.90;;;;;;5028951;28;20188;-75
2021/12/12 11:05:24;;;;;;;0.32;0.32;;;9.70;99.90;;;;;;5028890;28;20197;-75
2021/12/12 11:08:11;;;;;;;0.38;0.30;;;9.90;99.90;;;;;;5028917;28;20635;-77
2021/12/12 11:10:41;;;;;;;0.28;0.28;;;10.30;99.90;;;;;;5028957;28;20531;-75
2021/12/12 11:13:38;;;;;;;0.73;0.40;;;10.70;99.90;;;;;;5028788;28;20226;-76
2021/12/12 11:16:11;;;;;;;0.10;0.10;;;11.20;99.90;;;;;;5022840;28;20284;-75
2021/12/12 11:18:45;;;;;;;0.30;0.20;;;11.30;99.90;;;;;;5028853;28;20193;-74
2021/12/12 11:21:24;;;;;;;1.35;0.30;;;10.60;99.90;;;;;;5028502;28;20237;-75
2021/12/12 11:23:56;;;;;;;0.77;0.40;;;9.30;99.90;;;;;;5028782;28;20273;-75
2021/12/12 11:26:31;;;;;;;0.35;0.30;;;8.80;99.90;;;;;;5028746;28;20166;-75
2021/12/12 11:29:01;;;;;;;0.17;0.17;;;9.10;99.90;;;;;;5028670;28;20165;-75
2021/12/12 11:31:37;;;;;;;1.02;0.40;;;9.20;99.90;;;;;;5011506;28;20163;-76
2021/12/12 11:34:05;;;;;;;0.40;0.40;;;9.40;99.90;;;;;;5028667;28;20527;-75
2021/12/12 11:37:10;;;;;;;0.57;0.35;;;9.60;99.90;;;;;;5029656;28;20172;-74
2021/12/12 11:39:54;;;;;;;1.02;0.40;;;9.40;99.90;;;;;;5028671;28;20190;-75
2021/12/12 11:42:45;;;;;;;0.30;0.30;;;10.80;99.90;;;;;;5032192;28;20164;-75
2021/12/12 11:45:17;;;;;;;0.28;0.22;;;9.90;99.90;;;;;;5032111;28;20217;-75
2021/12/12 11:47:46;;;;;;;0.32;0.30;;;8.60;99.90;;;;;;5032032;28;20230;-76
2021/12/12 11:50:24;;;;;;;0.50;0.40;;;8.80;99.90;;;;;;5031850;28;20162;-75
2021/12/12 11:53:08;;;;;;;0.28;0.20;;;8.90;99.90;;;;;;5031945;28;20193;-75
2021/12/12 11:55:57;;;;;;;1.25;0.43;;;8.70;99.90;;;;;;5031834;28;20197;-75
2021/12/12 11:58:38;;;;;;;0.22;0.22;;;9.00;99.90;;;;;;5031496;28;20235;-74
2021/12/12 12:01:25;;;;;;;0.60;0.38;;;8.30;99.90;;;;;;5018272;28;20178;-74
2021/12/12 12:04:13;;;;;;;0.20;0.20;;;8.40;99.90;;;;;;5011981;28;20195;-74
2021/12/12 12:06:50;;;;;;;0.47;0.25;;;8.30;99.90;;;;;;5011905;28;20163;-73
2021/12/12 12:09:37;;;;;;;1.17;0.30;;;8.10;99.90;;;;;;5011992;28;20161;-74
2021/12/12 12:12:09;;;;;;;0.52;0.13;;;8.00;99.90;;;;;;5012113;28;20201;-73
2021/12/12 12:14:46;;;;;;;0.45;0.30;;;7.70;99.90;;;;;;5017907;28;20237;-72
2021/12/12 12:17:24;;;;;;;0.73;0.40;;;8.00;99.90;;;;;;5031591;28;20169;-73
2021/12/12 12:20:12;;;;;;;0.20;0.20;;;8.10;99.90;;;;;;5031418;28;20235;-74
2021/12/12 12:22:44;;;;;;;0.65;0.60;;;7.60;99.90;;;;;;5013969;28;20202;-72
2021/12/12 12:25:17;;;;;;;0.52;0.40;;;7.40;99.90;;;;;;5031257;28;20261;-72
2021/12/12 12:27:58;;;;;;;0.28;0.22;;;7.00;99.90;;;;;;5031453;28;20229;-73
2021/12/12 12:30:32;;;;;;;0.52;0.30;;;6.80;99.90;;;;;;5031237;28;20154;-73
2021/12/12 12:33:13;;;;;;;0.30;0.30;;;6.80;99.90;;;;;;5030486;28;20193;-72
2021/12/12 12:36:16;;;;;;;0.30;0.30;;;6.80;99.90;;;;;;5011445;28;20190;-72
2021/12/12 12:39:01;;;;;;;0.82;0.63;;;6.70;99.90;;;;;;5011425;28;20174;-72
2021/12/12 12:42:03;;;;;;;0.28;0.28;;;6.70;99.90;;;;;;5011578;28;20169;-72
2021/12/12 12:44:56;;;;;;;0.73;0.55;;;6.80;99.90;;;;;;5011277;28;20213;-72
2021/12/12 12:47:31;;;;;;;1.05;0.80;;;6.70;99.90;;;;;;5011066;28;20216;-73
2021/12/12 12:50:18;;;;;;;2.03;1.45;;;6.70;99.90;;;;;;5011105;28;20162;-73
2021/12/12 12:52:59;;;;;;;0.85;0.50;;;6.70;99.90;;;;;;5011394;28;20169;-72
2021/12/12 12:55:33;;;;;;;1.77;0.60;;;6.60;99.90;;;;;;5011160;28;20198;-71
2021/12/12 12:58:23;;;;;;;0.90;0.55;;;6.50;99.90;;;;;;5017058;28;20225;-71
2021/12/12 13:00:55;;;;;;;3.40;1.38;;;6.50;99.90;;;;;;5042340;28;20181;-72
2021/12/12 13:03:59;;;;;;;2.05;0.65;;;6.40;99.90;;;;;;5050508;28;20189;-71
2021/12/12 13:06:52;;;;;;;3.03;1.30;;;6.40;99.90;;;;;;5050272;28;20169;-70
2021/12/12 13:09:29;;;;;;;0.20;0.20;;;6.40;99.90;;;;;;5030683;28;20157;-71
2021/12/12 13:12:39;;;;;;;0.38;0.38;;;6.40;99.90;;;;;;5030538;28;20158;-70
2021/12/12 13:15:23;;;;;;;1.27;0.70;;;6.50;99.90;;;;;;4989023;28;20203;-71
2021/12/12 13:18:54;;;;;;;2.00;1.15;;;6.40;99.90;;;;;;4989400;28;20164;-71
2021/12/12 13:21:38;;;;;;;2.42;0.77;;;6.40;99.90;;;;;;4989264;28;20195;-71
2021/12/12 13:24:29;;;;;;;0.73;0.40;;;6.30;99.90;;;;;;4988857;28;20268;-72
2021/12/12 13:27:21;;;;;;;0.73;0.50;;;6.30;99.90;;;;;;4989219;28;20191;-73
2021/12/12 13:30:05;;;;;;;1.13;0.60;;;6.20;99.90;;;;;;4989334;28;20205;-73
2021/12/12 13:32:55;;;;;;;2.28;0.70;;;6.20;99.90;;;;;;4989044;28;20171;-72
2021/12/12 13:35:30;;;;;;;0.50;0.40;;;6.20;99.90;;;;;;4988749;28;20285;-71
2021/12/12 13:38:22;;;;;;;1.50;0.80;;;6.20;99.90;;;;;;4988942;28;20163;-73
2021/12/12 13:41:03;;;;;;;0.40;0.22;;;6.20;99.90;;;;;;4988969;28;20151;-72
2021/12/12 13:43:50;;;;;;;0.52;0.50;;;6.40;99.90;;;;;;4988600;28;20317;-73
2021/12/12 13:46:29;;;;;;;0.85;0.50;;;6.30;99.90;;;;;;4988875;28;20295;-72
2021/12/12 13:49:23;;;;;;;0.40;0.40;;;6.30;99.90;;;;;;4989007;28;20183;-73
2021/12/12 13:51:52;;;;;;;0.60;0.38;;;6.20;99.90;;;;;;4988566;28;20173;-73